createdAt,value
2018-09-19T00:01:25.789Z,95672.97
2018-09-19T00:03:54.453Z,95656.87
2018-09-19T00:06:24.608Z,95662.77
2018-09-19T00:08:53.575Z,95655.89
2018-09-19T00:11:22.570Z,95654.78
2018-09-19T00:13:51.682Z,95658.86
2018-09-19T00:16:21.207Z,95651.33
2018-09-19T00:18:49.977Z,95656.00
2018-09-19T00:21:18.849Z,95659.73
2018-09-19T00:23:48.279Z,95658.74
2018-09-19T00:26:17.675Z,95659.67
2018-09-19T00:28:46.858Z,95661.06
2018-09-19T00:31:16.654Z,95651.27
2018-09-19T00:33:45.687Z,95656.48
2018-09-19T00:36:14.418Z,95668.64
2018-09-19T00:38:44.226Z,95662.88
2018-09-19T00:41:13.286Z,95658.73
2018-09-19T00:43:42.152Z,95658.01
2018-09-19T00:46:11.891Z,95660.20
2018-09-19T00:48:40.946Z,95669.45
2018-09-19T00:51:09.879Z,95661.09
2018-09-19T00:53:39.359Z,95665.84
2018-09-19T00:56:08.274Z,95665.70
2018-09-19T00:58:37.476Z,95664.36
2018-09-19T01:01:06.697Z,95660.20
2018-09-19T01:03:35.783Z,95655.45
2018-09-19T01:06:05.068Z,95657.94
2018-09-19T01:08:40.511Z,95661.36
2018-09-19T01:11:09.422Z,95663.81
2018-09-19T01:13:38.374Z,95658.78
2018-09-19T01:16:07.431Z,95660.66
2018-09-19T01:18:36.299Z,95658.63
2018-09-19T01:21:05.591Z,95663.16
2018-09-19T01:23:34.598Z,95661.42
2018-09-19T01:26:03.909Z,95653.55
2018-09-19T01:28:33.591Z,95656.08
2018-09-19T01:31:03.183Z,95658.11
2018-09-19T01:33:31.913Z,95643.68
2018-09-19T01:36:01.059Z,95655.29
2018-09-19T01:38:35.444Z,95656.67
2018-09-19T01:41:04.618Z,95654.47
2018-09-19T01:43:34.039Z,95659.47
2018-09-19T01:46:03.741Z,95661.98
2018-09-19T01:48:32.700Z,95659.98
2018-09-19T01:51:02.783Z,95651.12
2018-09-19T01:53:32.152Z,95648.56
2018-09-19T01:56:01.010Z,95654.73
2018-09-19T01:58:36.152Z,95651.20
2018-09-19T02:01:04.970Z,95649.97
2018-09-19T02:03:34.065Z,95652.61
2018-09-19T02:06:02.980Z,95648.16
2018-09-19T02:08:31.791Z,95652.97
2018-09-19T02:11:00.710Z,95649.03
2018-09-19T02:13:29.898Z,95651.80
2018-09-19T02:15:59.443Z,95654.84
2018-09-19T02:18:28.404Z,95659.31
2018-09-19T02:20:57.611Z,95664.25
2018-09-19T02:23:26.618Z,95664.06
2018-09-19T02:25:55.611Z,95663.48
2018-09-19T02:28:36.547Z,95657.09
2018-09-19T02:31:05.902Z,95654.64
2018-09-19T02:33:35.611Z,95653.27
2018-09-19T02:36:04.975Z,95660.34
2018-09-19T02:38:33.778Z,95656.53
2018-09-19T02:41:02.606Z,95659.31
2018-09-19T02:43:31.871Z,95660.59
2018-09-19T02:46:00.682Z,95656.13
2018-09-19T02:48:29.826Z,95659.39
2018-09-19T02:50:59.090Z,95663.22
2018-09-19T02:53:28.086Z,95664.31
2018-09-19T02:55:57.042Z,95664.17
2018-09-19T03:01:30.888Z,95662.34
2018-09-19T03:04:00.097Z,95667.70
2018-09-19T03:06:29.456Z,95665.55
2018-09-19T03:08:58.611Z,95660.20
2018-09-19T03:11:27.550Z,95665.88
2018-09-19T03:13:56.642Z,95666.64
2018-09-19T03:16:25.573Z,95661.90
2018-09-19T03:18:55.522Z,95667.88
2018-09-19T03:21:25.026Z,95665.88
2018-09-19T03:23:54.078Z,95663.91
2018-09-19T03:26:23.388Z,95660.22
2018-09-19T03:28:52.092Z,95662.25
2018-09-19T03:31:20.980Z,95660.11
2018-09-19T03:33:50.231Z,95661.64
2018-09-19T03:36:19.295Z,95653.21
2018-09-19T03:38:48.386Z,95664.86
2018-09-19T03:41:17.609Z,95665.79
2018-09-19T03:43:46.800Z,95662.55
2018-09-19T03:46:15.585Z,95657.03
2018-09-19T03:48:44.501Z,95659.67
2018-09-19T03:51:13.655Z,95664.70
2018-09-19T03:53:42.664Z,95660.57
2018-09-19T03:56:11.481Z,95658.88
2018-09-19T03:58:40.352Z,95657.34
2018-09-19T04:01:09.114Z,95659.02
2018-09-19T04:03:38.450Z,95654.88
2018-09-19T04:06:07.346Z,95653.98
2018-09-19T04:08:36.311Z,95651.67
2018-09-19T04:11:05.285Z,95656.15
2018-09-19T04:13:33.999Z,95667.52
2018-09-19T04:16:03.007Z,95664.27
2018-09-19T04:21:32.321Z,95659.42
2018-09-19T04:24:01.830Z,95661.11
2018-09-19T04:26:30.743Z,95667.50
2018-09-19T04:34:56.867Z,95654.46
2018-09-19T04:37:25.637Z,95670.05
2018-09-19T04:39:54.535Z,95666.05
2018-09-19T04:42:23.570Z,95664.06
2018-09-19T04:44:52.453Z,95666.22
2018-09-19T04:47:21.546Z,95666.34
2018-09-19T04:49:50.659Z,95664.31
2018-09-19T04:52:19.651Z,95668.89
2018-09-19T04:54:48.527Z,95672.78
2018-09-19T04:57:17.651Z,95679.20
2018-09-19T04:59:46.719Z,95678.33
2018-09-19T05:02:15.322Z,95673.87
2018-09-19T05:04:44.535Z,95678.22
2018-09-19T05:07:13.406Z,95684.23
2018-09-19T05:09:42.126Z,95682.51
2018-09-19T05:12:11.168Z,95679.34
2018-09-19T05:14:39.872Z,95674.09
2018-09-19T05:17:08.731Z,95677.15
2018-09-19T05:19:37.948Z,95666.48
2018-09-19T05:22:07.238Z,95674.63
2018-09-19T05:24:36.150Z,95673.55
2018-09-19T05:27:05.241Z,95665.14
2018-09-19T05:29:39.700Z,95667.67
2018-09-19T05:32:09.183Z,95663.36
2018-09-19T05:34:38.270Z,95663.36
2018-09-19T05:37:06.575Z,95669.41
2018-09-19T05:39:35.477Z,95665.63
2018-09-19T05:42:04.318Z,95666.28
2018-09-19T05:44:33.109Z,95680.97
2018-09-19T05:47:01.959Z,95679.66
2018-09-19T05:49:30.785Z,95681.28
2018-09-19T05:51:59.521Z,95681.27
2018-09-19T05:54:28.314Z,95680.52
2018-09-19T05:56:57.253Z,95681.14
2018-09-19T05:59:25.942Z,95686.47
2018-09-19T06:01:54.884Z,95691.52
2018-09-19T06:04:23.599Z,95693.52
2018-09-19T06:06:52.222Z,95699.83
2018-09-19T06:09:21.111Z,95696.41
2018-09-19T06:11:49.746Z,95695.08
2018-09-19T06:14:18.510Z,95691.88
2018-09-19T06:16:47.492Z,95692.61
2018-09-19T06:22:18.272Z,95699.55
2018-09-19T06:24:46.975Z,95696.80
2018-09-19T06:27:15.710Z,95695.77
2018-09-19T06:29:44.618Z,95697.97
2018-09-19T06:32:13.350Z,95698.62
2018-09-19T06:34:42.029Z,95701.48
2018-09-19T06:37:11.101Z,95694.95
2018-09-19T06:39:39.730Z,95694.43
2018-09-19T06:42:08.436Z,95692.86
2018-09-19T06:44:37.659Z,95691.45
2018-09-19T06:47:06.315Z,95688.28
2018-09-19T06:49:34.909Z,95695.30
2018-09-19T06:52:03.891Z,95691.69
2018-09-19T06:54:32.553Z,95692.80
2018-09-19T06:57:01.359Z,95688.86
2018-09-19T06:59:30.391Z,95694.20
2018-09-19T07:01:59.232Z,95692.70
2018-09-19T07:04:27.857Z,95701.93
2018-09-19T07:06:56.948Z,95696.05
2018-09-19T07:16:09.707Z,95695.49
2018-09-19T07:18:38.340Z,95701.94
2018-09-19T07:21:07.107Z,95702.15
2018-09-19T07:23:35.963Z,95707.02
2018-09-19T07:26:04.642Z,95704.64
2018-09-19T07:28:33.387Z,95702.55
2018-09-19T07:31:02.428Z,95708.67
2018-09-19T07:33:31.078Z,95700.91
2018-09-19T07:35:59.771Z,95701.23
2018-09-19T07:38:28.402Z,95702.13
2018-09-19T07:40:57.242Z,95703.41
2018-09-19T07:43:26.034Z,95704.27
2018-09-19T07:45:54.934Z,95700.16
2018-09-19T07:48:23.548Z,95701.98
2018-09-19T07:50:52.204Z,95704.23
2018-09-19T07:53:21.096Z,95689.92
2018-09-19T07:55:49.872Z,95697.50
2018-09-19T07:58:18.895Z,95691.95
2018-09-19T08:00:48.013Z,95688.14
2018-09-19T08:03:16.461Z,95690.16
2018-09-19T08:05:45.189Z,95680.31
2018-09-19T08:08:14.168Z,95680.00
2018-09-19T08:10:42.842Z,95687.67
2018-09-19T08:13:11.727Z,95694.08
2018-09-19T08:15:40.781Z,95686.14
2018-09-19T08:18:32.181Z,95685.30
2018-09-19T08:21:01.143Z,95674.19
2018-09-19T08:23:29.831Z,95684.94
2018-09-19T08:25:58.470Z,95682.53
2018-09-19T08:28:27.438Z,95677.64
2018-09-19T08:30:56.250Z,95670.68
2018-09-19T08:33:25.006Z,95670.42
2018-09-19T08:35:53.828Z,95675.10
2018-09-19T08:38:22.454Z,95678.69
2018-09-19T08:40:51.137Z,95670.58
2018-09-19T08:43:19.870Z,95675.88
2018-09-19T08:45:48.820Z,95668.53
2018-09-19T08:48:17.479Z,95669.00
2018-09-19T08:50:46.473Z,95663.98
2018-09-19T08:53:15.048Z,95663.56
2018-09-19T08:55:43.769Z,95660.98
2018-09-19T08:58:12.744Z,95657.86
2018-09-19T09:00:41.757Z,95658.73
2018-09-19T09:03:10.414Z,95657.73
2018-09-19T09:05:39.532Z,95650.19
2018-09-19T09:08:08.419Z,95650.83
2018-09-19T09:10:37.203Z,95643.97
2018-09-19T09:13:06.277Z,95643.56
2018-09-19T09:15:35.051Z,95651.05
2018-09-19T09:18:03.808Z,95644.20
2018-09-19T09:20:32.537Z,95641.23
2018-09-19T09:23:01.240Z,95635.50
2018-09-19T09:25:29.856Z,95637.27
2018-09-19T09:27:58.744Z,95635.36
2018-09-19T09:30:27.351Z,95635.72
2018-09-19T09:32:56.074Z,95631.20
2018-09-19T09:35:25.179Z,95628.86
2018-09-19T09:37:54.308Z,95627.95
2018-09-19T09:40:23.148Z,95626.81
2018-09-19T09:42:52.450Z,95623.16
2018-09-19T09:45:21.382Z,95630.32
2018-09-19T09:47:50.589Z,95622.66
2018-09-19T09:50:20.412Z,95616.52
2018-09-19T09:52:49.425Z,95612.09
2018-09-19T09:55:18.448Z,95603.61
2018-09-19T09:57:47.338Z,95619.53
2018-09-19T10:00:20.209Z,95613.83
2018-09-19T10:02:49.535Z,95604.72
2018-09-19T10:05:18.576Z,95601.73
2018-09-19T10:07:47.350Z,95600.27
2018-09-19T10:10:16.560Z,95597.51
2018-09-19T10:12:45.647Z,95601.48
2018-09-19T10:15:14.703Z,95590.69
2018-09-19T10:17:43.905Z,95596.25
2018-09-19T10:20:12.951Z,95588.07
2018-09-19T10:22:41.890Z,95589.16
2018-09-19T10:25:11.074Z,95588.67
2018-09-19T10:27:39.886Z,95584.02
2018-09-19T10:30:08.784Z,95582.86
2018-09-19T10:32:37.692Z,95583.34
2018-09-19T10:35:06.451Z,95580.83
2018-09-19T10:37:35.268Z,95574.33
2018-09-19T10:40:04.572Z,95568.77
2018-09-19T10:42:33.447Z,95564.80
2018-09-19T10:45:02.265Z,95565.64
2018-09-19T10:47:31.386Z,95568.36
2018-09-19T10:50:00.298Z,95566.92
2018-09-19T10:52:29.229Z,95557.11
2018-09-19T10:54:58.370Z,95561.95
2018-09-19T10:57:27.360Z,95560.88
2018-09-19T10:59:56.309Z,95558.80
2018-09-19T11:02:25.375Z,95558.71
2018-09-19T11:04:54.489Z,95544.98
2018-09-19T11:07:23.486Z,95552.22
2018-09-19T11:09:52.865Z,95555.87
2018-09-19T11:12:21.686Z,95541.45
2018-09-19T11:14:50.470Z,95536.73
2018-09-19T11:17:19.701Z,95538.45
2018-09-19T11:19:48.722Z,95526.50
2018-09-19T11:22:17.665Z,95530.36
2018-09-19T11:24:46.770Z,95538.56
2018-09-19T11:27:15.530Z,95524.54
2018-09-19T11:29:44.522Z,95529.07
2018-09-19T11:32:13.430Z,95517.21
2018-09-19T11:34:42.187Z,95521.67
2018-09-19T11:37:11.107Z,95517.98
2018-09-19T11:39:40.508Z,95518.72
2018-09-19T11:42:09.400Z,95513.77
2018-09-19T11:44:38.291Z,95508.37
2018-09-19T11:47:07.430Z,95510.43
2018-09-19T11:49:36.278Z,95508.25
2018-09-19T11:52:05.344Z,95503.08
2018-09-19T11:54:34.656Z,95504.72
2018-09-19T11:57:03.734Z,95493.25
2018-09-19T12:11:18.572Z,95478.04
2018-09-19T12:13:47.499Z,95482.31
2018-09-19T12:16:16.416Z,95476.16
2018-09-19T12:39:03.023Z,95448.53
2018-09-19T12:41:32.238Z,95446.62
2018-09-19T12:44:01.128Z,95445.93
2018-09-19T12:46:29.890Z,95442.69
2018-09-19T12:48:59.072Z,95447.88
2018-09-19T12:51:27.909Z,95443.20
2018-09-19T12:53:56.523Z,95436.83
2018-09-19T12:56:26.080Z,95451.13
2018-09-19T12:58:55.102Z,95439.70
2018-09-19T13:01:24.092Z,95440.85
2018-09-19T13:03:53.362Z,95431.80
2018-09-19T13:06:22.176Z,95436.92
2018-09-19T13:08:51.047Z,95432.62
2018-09-19T13:11:20.952Z,95432.00
2018-09-19T13:13:49.613Z,95424.37
2018-09-19T13:16:18.555Z,95428.34
2018-09-19T13:18:47.514Z,95416.98
2018-09-19T13:21:16.721Z,95417.87
2018-09-19T13:23:45.532Z,95411.91
2018-09-19T13:26:14.187Z,95420.67
2018-09-19T13:28:43.082Z,95406.65
2018-09-19T13:31:12.114Z,95411.91
2018-09-19T13:33:41.118Z,95400.45
2018-09-19T13:36:10.098Z,95398.80
2018-09-19T13:38:38.933Z,95400.05
2018-09-19T13:41:08.068Z,95398.56
2018-09-19T13:43:36.827Z,95407.98
2018-09-19T13:46:05.718Z,95402.15
2018-09-19T13:48:35.687Z,95393.30
2018-09-19T13:51:20.720Z,95403.79
2018-09-19T13:53:49.569Z,95397.81
2018-09-19T13:56:18.495Z,95397.86
2018-09-19T13:58:49.257Z,95401.72
2018-09-19T14:01:18.639Z,95394.01
2018-09-19T14:03:47.453Z,95398.98
2018-09-19T14:06:16.495Z,95400.27
2018-09-19T14:08:45.583Z,95390.83
2018-09-19T14:11:14.536Z,95398.50
2018-09-19T14:13:43.419Z,95394.16
2018-09-19T14:16:12.843Z,95395.80
2018-09-19T14:18:41.710Z,95400.57
2018-09-19T14:21:10.641Z,95394.94
2018-09-19T14:23:40.089Z,95389.30
2018-09-19T14:26:08.826Z,95393.19
2018-09-19T14:28:49.718Z,95401.11
2018-09-19T14:31:18.878Z,95387.63
2018-09-19T14:33:47.561Z,95376.55
2018-09-19T14:36:16.528Z,95389.98
2018-09-19T14:38:45.522Z,95383.53
2018-09-19T14:41:14.345Z,95384.00
2018-09-19T14:43:43.375Z,95380.66
2018-09-19T14:46:12.117Z,95381.80
2018-09-19T14:48:41.106Z,95378.98
2018-09-19T14:51:10.124Z,95383.66
2018-09-19T14:53:38.848Z,95387.93
2018-09-19T14:56:07.523Z,95386.57
2018-09-19T14:58:36.984Z,95382.83
2018-09-19T15:01:06.174Z,95380.25
2018-09-19T15:03:35.279Z,95377.70
2018-09-19T15:06:04.739Z,95385.63
2018-09-19T15:08:33.675Z,95386.73
2018-09-19T15:11:02.414Z,95394.98
2018-09-19T15:13:31.261Z,95388.84
2018-09-19T15:15:59.982Z,95393.48
2018-09-19T15:18:28.833Z,95396.62
2018-09-19T15:20:57.840Z,95398.59
2018-09-19T15:23:27.043Z,95408.30
2018-09-19T15:25:55.992Z,95398.37
2018-09-19T15:28:25.176Z,95403.86
2018-09-19T15:30:54.103Z,95397.95
2018-09-19T15:33:22.915Z,95387.83
2018-09-19T15:35:51.713Z,95417.69
2018-09-19T15:38:20.713Z,95406.27
2018-09-19T15:40:49.771Z,95401.73
2018-09-19T15:43:18.941Z,95414.55
2018-09-19T15:45:48.333Z,95427.46
2018-09-19T15:48:17.283Z,95410.66
2018-09-19T15:50:46.399Z,95409.23
2018-09-19T15:53:15.178Z,95416.02
2018-09-19T15:55:43.809Z,95401.78
2018-09-19T15:58:13.007Z,95417.27
2018-09-19T16:00:42.074Z,95415.22
2018-09-19T16:03:10.837Z,95417.39
2018-09-19T16:05:40.140Z,95411.22
2018-09-19T16:08:10.020Z,95412.94
2018-09-19T16:10:38.882Z,95409.55
2018-09-19T16:13:08.038Z,95423.34
2018-09-19T16:15:36.676Z,95421.51
2018-09-19T16:18:05.791Z,95428.70
2018-09-19T16:20:34.789Z,95428.36
2018-09-19T16:29:47.681Z,95440.36
2018-09-19T16:32:17.004Z,95441.81
2018-09-19T16:34:46.156Z,95436.95
2018-09-19T16:37:15.463Z,95445.40
2018-09-19T16:39:44.261Z,95442.78
2018-09-19T16:42:13.134Z,95445.84
2018-09-19T16:44:42.298Z,95439.92
2018-09-19T16:47:11.331Z,95446.98
2018-09-19T16:49:40.171Z,95444.88
2018-09-19T16:52:09.405Z,95445.89
2018-09-19T16:54:38.194Z,95446.70
2018-09-19T16:57:07.092Z,95450.89
2018-09-19T16:59:36.440Z,95459.23
2018-09-19T17:02:05.412Z,95459.27
2018-09-19T17:04:34.246Z,95477.59
2018-09-19T17:07:03.461Z,95464.81
2018-09-19T17:09:32.254Z,95473.89
2018-09-19T17:12:01.361Z,95477.02
2018-09-19T17:14:30.453Z,95482.35
2018-09-19T17:16:59.230Z,95484.67
2018-09-19T17:19:28.014Z,95487.23
2018-09-19T17:21:57.215Z,95495.91
2018-09-19T17:24:26.026Z,95500.95
2018-09-19T17:26:54.735Z,95504.66
2018-09-19T17:29:23.867Z,95506.59
2018-09-19T17:31:52.993Z,95507.94
2018-09-19T17:34:21.744Z,95508.57
2018-09-19T17:36:51.082Z,95509.84
